KAQP

Appleton Municipal Airport

Appleton, Minnesota, USA
METAR KAQP 181952Z AUTO 24009KT 10SM BKN100 06/M02 A2962 RMK AO2
Observed Flight Rules
Dec-18 @ 19:52 UTC (28 minutes ago) Visual Flight Rules
Wind Visibility Clouds
240° at 9 knots 10 miles
  • Broken at 10,000' AGL
Temperatures Readings
Current 6°C / 43°F
Dewpoint -2°C / 28°F
Humidity 57%
Altimeter 29.62" Hg
Pressure 1003 hPa
Elevation 311
METAR KAQP 181952Z AUTO 24009KT 10SM BKN100 06/M02 A2962 RMK AO2
Observed Flight Rules
Dec-18 @ 19:52 UTC
(28 minutes ago)
VFR
Wind Visibility
240° at 9 knots 10 miles
Clouds
  • Broken at 10,000' AGL
Temperature Dewpoint
6°C / 43°F -2°C / 28°F
Humidity Altimeter Pressure
57% 29.62" Hg 1003 hPa